createdAt,value
2019-05-01T03:47:04.909Z,7.90
2019-05-01T03:49:33.936Z,7.90
2019-05-01T03:52:27.128Z,7.90
2019-05-01T03:54:55.179Z,7.70
2019-05-01T03:57:24.139Z,7.60
2019-05-01T04:02:33.444Z,7.50
2019-05-01T04:04:59.658Z,7.50
2019-05-01T04:07:28.060Z,7.50
2019-05-01T04:09:56.292Z,7.50
2019-05-01T04:12:24.340Z,7.50
2019-05-01T04:14:52.458Z,7.40
2019-05-01T04:17:22.165Z,7.50
2019-05-01T04:19:50.386Z,7.40
2019-05-01T04:22:18.547Z,7.30
2019-05-01T04:24:46.800Z,7.30
2019-05-01T04:27:16.923Z,7.30
2019-05-01T04:29:49.524Z,7.30
2019-05-01T04:32:19.165Z,7.40
2019-05-01T04:35:05.914Z,7.40
2019-05-01T04:37:34.005Z,7.50
2019-05-01T04:40:02.053Z,7.40
2019-05-01T04:42:30.149Z,7.40
2019-05-01T04:44:58.358Z,7.40
2019-05-01T04:47:26.425Z,7.50
2019-05-01T04:49:54.842Z,7.50
2019-05-01T04:52:22.898Z,8.00
2019-05-01T04:54:51.349Z,8.70
2019-05-01T04:57:19.405Z,8.40
2019-05-01T04:59:47.462Z,8.90
2019-05-01T05:02:17.081Z,9.20
2019-05-01T05:04:45.126Z,9.10
2019-05-01T05:07:13.275Z,9.50
2019-05-01T05:09:47.680Z,9.60
2019-05-01T05:12:19.585Z,9.60
2019-05-01T05:14:52.023Z,9.50
2019-05-01T05:17:24.616Z,9.90
2019-05-01T05:19:52.905Z,10.00
2019-05-01T05:22:20.964Z,10.20
2019-05-01T05:24:49.229Z,10.20
2019-05-01T05:27:17.747Z,10.30
2019-05-01T05:29:47.382Z,10.40
2019-05-01T05:32:15.579Z,10.50
2019-05-01T05:34:44.541Z,10.50
2019-05-01T05:37:20.625Z,10.60
2019-05-01T05:39:49.688Z,10.30
2019-05-01T05:42:18.043Z,9.70
2019-05-01T05:44:47.587Z,9.50
2019-05-01T05:47:15.625Z,9.50
2019-05-01T05:49:43.794Z,9.70
2019-05-01T05:52:14.179Z,9.70
2019-05-01T05:54:50.665Z,9.60
2019-05-01T05:57:24.315Z,9.50
2019-05-01T05:59:55.491Z,9.40
2019-05-01T06:02:29.573Z,9.30
2019-05-01T06:05:15.615Z,9.50
2019-05-01T06:07:46.792Z,10.20
2019-05-01T06:10:23.161Z,10.40
2019-05-01T06:12:59.639Z,10.50
2019-05-01T06:15:31.841Z,10.60
2019-05-01T06:18:04.138Z,10.60
2019-05-01T06:20:39.388Z,10.50
2019-05-01T06:23:09.173Z,10.20
2019-05-01T06:25:40.322Z,9.90
2019-05-01T06:28:10.516Z,9.90
2019-05-01T06:30:42.065Z,10.50
2019-05-01T06:33:09.579Z,10.30
2019-05-01T06:35:39.398Z,10.20
2019-05-01T06:38:16.613Z,10.30
2019-05-01T06:40:46.350Z,10.20
2019-05-01T06:43:20.268Z,10.70
2019-05-01T06:45:51.611Z,10.70
2019-05-01T06:48:20.292Z,10.70
2019-05-01T06:50:50.416Z,10.90
2019-05-01T06:53:18.725Z,10.70
2019-05-01T06:55:46.894Z,10.60
2019-05-01T06:58:20.272Z,10.70
2019-05-01T07:00:44.811Z,10.90
2019-05-01T07:03:12.970Z,11.20
2019-05-01T07:05:40.972Z,11.60
2019-05-01T07:08:09.200Z,11.70
2019-05-01T07:10:44.181Z,12.00
2019-05-01T07:13:07.265Z,12.20
2019-05-01T07:15:37.637Z,12.30
2019-05-01T07:18:05.960Z,12.20
2019-05-01T07:20:35.826Z,12.30
2019-05-01T07:23:04.753Z,12.50
2019-05-01T07:25:34.920Z,12.50
2019-05-01T07:28:02.871Z,12.70
2019-05-01T07:30:32.565Z,12.60
2019-05-01T07:33:01.028Z,12.60
2019-05-01T07:35:32.906Z,12.50
2019-05-01T07:38:02.265Z,12.60
2019-05-01T07:40:30.235Z,12.60
2019-05-01T07:43:03.056Z,12.50
2019-05-01T07:45:39.014Z,12.60
2019-05-01T07:48:08.642Z,12.70
2019-05-01T07:50:37.121Z,12.70
2019-05-01T07:53:05.844Z,12.70
2019-05-01T07:55:36.279Z,12.80
2019-05-01T07:58:05.634Z,12.80
2019-05-01T08:00:42.965Z,13.00
2019-05-01T08:03:10.965Z,13.00
2019-05-01T08:05:40.782Z,13.00
2019-05-01T08:08:09.619Z,13.00
2019-05-01T08:10:37.808Z,13.00
2019-05-01T08:13:05.801Z,13.10
2019-05-01T08:15:33.829Z,13.20
2019-05-01T08:18:12.559Z,13.20
2019-05-01T08:20:45.829Z,13.40
2019-05-01T08:23:13.498Z,13.50
2019-05-01T08:25:41.701Z,13.50
2019-05-01T08:28:14.189Z,13.40
2019-05-01T08:31:00.136Z,13.50
2019-05-01T08:33:29.863Z,13.60
2019-05-01T08:35:58.015Z,13.70
2019-05-01T08:38:29.815Z,13.70
2019-05-01T08:40:56.754Z,13.80
2019-05-01T08:43:24.972Z,13.90
2019-05-01T08:46:06.421Z,14.00
2019-05-01T08:48:37.742Z,14.00
2019-05-01T08:51:05.848Z,14.00
2019-05-01T08:53:33.924Z,14.00
2019-05-01T08:56:01.929Z,14.10
2019-05-01T08:58:29.960Z,14.20
2019-05-01T09:00:59.927Z,14.30
2019-05-01T09:03:28.334Z,14.40
2019-05-01T09:05:59.032Z,14.40
2019-05-01T09:08:32.004Z,14.30
2019-05-01T09:11:01.943Z,14.40
2019-05-01T09:13:31.347Z,14.50
2019-05-01T09:15:59.640Z,14.60
2019-05-01T09:18:27.665Z,14.70
2019-05-01T09:20:57.296Z,14.70
2019-05-01T09:23:25.520Z,14.90
2019-05-01T09:26:06.303Z,14.80
2019-05-01T09:28:35.898Z,15.00
2019-05-01T09:31:06.796Z,15.10
2019-05-01T09:33:35.070Z,15.10
2019-05-01T09:36:03.324Z,15.20
2019-05-01T09:38:31.386Z,15.20
2019-05-01T09:41:01.173Z,15.40
2019-05-01T09:43:30.918Z,15.40
2019-05-01T09:45:59.108Z,15.30
2019-05-01T09:48:27.169Z,15.40
2019-05-01T09:51:13.686Z,15.40
2019-05-01T09:53:43.326Z,15.50
2019-05-01T09:56:12.958Z,15.60
2019-05-01T09:58:40.961Z,15.70
2019-05-01T10:01:09.092Z,15.80
2019-05-01T10:03:37.112Z,15.90
2019-05-01T10:06:05.604Z,16.00
2019-05-01T10:08:34.951Z,16.10
2019-05-01T10:11:05.134Z,16.00
2019-05-01T10:13:33.280Z,16.00
2019-05-01T10:16:01.268Z,16.10
2019-05-01T10:18:29.296Z,16.10
2019-05-01T10:20:57.340Z,16.10
2019-05-01T10:23:25.325Z,16.30
2019-05-01T10:25:55.005Z,16.40
2019-05-01T10:28:30.474Z,16.40
2019-05-01T10:31:16.606Z,16.40
2019-05-01T10:33:46.256Z,16.40
2019-05-01T10:36:22.434Z,16.60
2019-05-01T10:38:50.483Z,16.70
2019-05-01T10:41:18.484Z,16.80
2019-05-01T10:43:46.657Z,16.90
2019-05-01T10:46:14.901Z,16.70
2019-05-01T10:48:42.901Z,17.00
2019-05-01T10:51:10.902Z,17.10
2019-05-01T10:53:39.143Z,17.10
2019-05-01T10:56:07.160Z,17.20
2019-05-01T10:58:36.592Z,17.00
2019-05-01T11:01:21.245Z,17.30
2019-05-01T11:03:50.973Z,17.40
2019-05-01T11:06:19.058Z,17.40
2019-05-01T11:08:47.128Z,17.50
2019-05-01T11:11:15.483Z,17.40
2019-05-01T11:13:43.469Z,16.90
2019-05-01T11:16:11.459Z,17.20
2019-05-01T11:18:39.469Z,17.40
2019-05-01T11:21:07.452Z,17.00
2019-05-01T11:23:35.452Z,16.90
2019-05-01T11:26:03.508Z,17.00
2019-05-01T11:28:31.570Z,17.30
2019-05-01T11:30:59.658Z,17.40
2019-05-01T11:33:32.252Z,17.70
2019-05-01T11:36:18.632Z,17.80
2019-05-01T11:39:04.833Z,17.80
2019-05-01T11:41:34.469Z,17.50
2019-05-01T11:44:02.510Z,17.60
2019-05-01T11:46:30.511Z,17.70
2019-05-01T11:48:58.496Z,17.60
2019-05-01T11:51:26.486Z,18.00
2019-05-01T11:53:54.482Z,18.10
2019-05-01T11:56:22.461Z,18.20
2019-05-01T11:58:50.450Z,18.20
2019-05-01T12:01:20.151Z,18.00
2019-05-01T12:03:48.139Z,18.00
2019-05-01T12:06:22.595Z,18.10
2019-05-01T12:08:45.880Z,18.10
2019-05-01T12:11:15.143Z,18.00
2019-05-01T12:13:44.151Z,18.10
2019-05-01T12:16:13.945Z,18.30
2019-05-01T12:18:41.944Z,18.30
2019-05-01T12:21:09.933Z,18.30
2019-05-01T12:23:37.968Z,18.40
2019-05-01T12:26:06.024Z,18.40
2019-05-01T12:28:34.042Z,18.40
2019-05-01T12:31:02.024Z,18.50
2019-05-01T12:33:30.028Z,18.60
2019-05-01T12:35:59.650Z,18.70
2019-05-01T12:38:27.946Z,18.80
2019-05-01T12:41:13.985Z,18.90
2019-05-01T12:43:41.994Z,19.00
2019-05-01T12:46:11.661Z,18.60
2019-05-01T12:48:39.778Z,18.70
2019-05-01T12:51:08.035Z,18.80
2019-05-01T12:53:52.908Z,18.90
2019-05-01T12:56:22.569Z,18.80
2019-05-01T12:58:50.725Z,18.70
2019-05-01T13:01:18.737Z,18.80
2019-05-01T13:03:46.830Z,18.90
2019-05-01T13:06:14.865Z,19.00
2019-05-01T13:08:42.883Z,19.00
2019-05-01T13:11:10.987Z,19.00
2019-05-01T13:13:38.979Z,19.20
2019-05-01T13:16:07.038Z,19.40
2019-05-01T13:18:35.021Z,19.40
2019-05-01T13:21:03.053Z,19.30
2019-05-01T13:23:31.163Z,19.20
2019-05-01T13:26:00.891Z,19.30
2019-05-01T13:28:39.179Z,19.20
2019-05-01T13:31:14.765Z,19.30
2019-05-01T13:33:42.755Z,19.30
2019-05-01T13:36:10.806Z,19.40
2019-05-01T13:38:38.797Z,19.50
2019-05-01T13:41:06.787Z,19.50
2019-05-01T13:43:34.769Z,19.20
2019-05-01T13:46:02.748Z,19.40
2019-05-01T13:48:30.831Z,19.60
2019-05-01T13:50:58.900Z,19.70
2019-05-01T13:53:26.977Z,19.70
2019-05-01T13:55:55.029Z,19.70
2019-05-01T13:58:23.084Z,19.70
2019-05-01T14:00:51.159Z,19.60
2019-05-01T14:03:19.229Z,19.60
2019-05-01T14:05:47.213Z,19.70
2019-05-01T14:08:15.308Z,19.50
2019-05-01T14:10:43.360Z,19.60
2019-05-01T14:13:11.449Z,19.70
2019-05-01T14:15:39.496Z,19.70
2019-05-01T14:18:07.569Z,19.80
2019-05-01T14:20:37.193Z,20.00
2019-05-01T14:23:10.041Z,20.10
2019-05-01T14:25:56.296Z,19.90
2019-05-01T14:28:24.396Z,20.00
2019-05-01T14:30:52.382Z,20.00
2019-05-01T14:33:20.369Z,19.90
2019-05-01T14:35:48.437Z,20.00
2019-05-01T14:38:16.428Z,20.10
2019-05-01T14:40:44.486Z,20.00
2019-05-01T14:43:12.466Z,20.00
2019-05-01T14:45:40.452Z,19.90
2019-05-01T14:48:08.449Z,20.00
2019-05-01T14:50:36.502Z,19.90
2019-05-01T14:53:04.562Z,20.10
2019-05-01T14:55:32.578Z,20.00
2019-05-01T14:58:00.565Z,20.10
2019-05-01T15:00:48.009Z,19.90
2019-05-01T15:03:16.063Z,20.20
2019-05-01T15:05:44.100Z,20.40
2019-05-01T15:08:12.262Z,20.20
2019-05-01T15:10:40.269Z,20.20
2019-05-01T15:13:26.080Z,20.10
2019-05-01T15:16:12.090Z,20.20
2019-05-01T15:18:44.553Z,20.10
2019-05-01T15:21:12.605Z,20.10
2019-05-01T15:23:52.874Z,20.20
2019-05-01T15:26:10.290Z,20.20
2019-05-01T15:28:38.360Z,20.10
2019-05-01T15:31:06.359Z,20.10
2019-05-01T15:33:34.350Z,20.30
2019-05-01T15:36:02.329Z,20.30
2019-05-01T15:38:30.319Z,20.50
2019-05-01T15:41:00.186Z,20.50
2019-05-01T15:43:32.763Z,20.50
2019-05-01T15:46:00.745Z,20.40
2019-05-01T15:48:28.799Z,20.30
2019-05-01T15:50:56.866Z,20.50
2019-05-01T15:53:25.049Z,20.50
2019-05-01T15:55:53.043Z,20.50
2019-05-01T15:58:21.027Z,20.50
2019-05-01T16:00:49.415Z,20.50
2019-05-01T16:03:17.566Z,20.40
2019-05-01T16:05:45.589Z,20.60
2019-05-01T16:08:13.589Z,20.80
2019-05-01T16:10:46.169Z,20.70
2019-05-01T16:13:14.360Z,20.80
2019-05-01T16:15:42.422Z,20.70
2019-05-01T16:18:10.681Z,20.90
2019-05-01T16:20:38.684Z,21.00
2019-05-01T16:23:06.681Z,21.10
2019-05-01T16:25:34.688Z,21.00
2019-05-01T16:28:02.956Z,21.00
2019-05-01T16:30:30.966Z,21.20
2019-05-01T16:32:59.004Z,21.30
2019-05-01T16:35:27.092Z,22.60
2019-05-01T16:37:57.003Z,23.30
2019-05-01T16:40:29.313Z,22.80
2019-05-01T16:42:57.378Z,22.50
2019-05-01T16:45:25.426Z,22.50
2019-05-01T16:47:53.430Z,24.50
2019-05-01T16:50:22.769Z,27.10
2019-05-01T16:52:51.077Z,28.30
2019-05-01T16:55:21.619Z,26.90
2019-05-01T16:57:49.023Z,25.80
2019-05-01T17:00:18.657Z,25.20
2019-05-01T17:02:48.393Z,24.60
2019-05-01T17:05:34.522Z,24.20
2019-05-01T17:08:13.332Z,23.70
2019-05-01T17:10:47.571Z,23.50
2019-05-01T17:13:15.826Z,23.20
2019-05-01T17:15:46.917Z,23.10
2019-05-01T17:18:15.189Z,23.10
2019-05-01T17:20:43.336Z,23.10
2019-05-01T17:23:11.394Z,22.90
2019-05-01T17:25:39.402Z,22.80
2019-05-01T17:28:08.443Z,22.80
2019-05-01T17:30:41.931Z,22.70
2019-05-01T17:33:09.993Z,22.40
2019-05-01T17:35:41.673Z,22.20
2019-05-01T17:38:07.753Z,22.20
2019-05-01T17:40:35.829Z,22.40
2019-05-01T17:43:08.006Z,22.40
2019-05-01T17:45:34.933Z,22.40
2019-05-01T17:48:03.426Z,22.40
2019-05-01T17:50:32.624Z,22.20
2019-05-01T17:53:00.623Z,22.20
2019-05-01T17:55:28.704Z,22.20
2019-05-01T17:57:56.756Z,22.20
2019-05-01T18:00:38.635Z,22.10
2019-05-01T18:03:26.731Z,22.00
2019-05-01T18:06:09.102Z,21.50
2019-05-01T18:08:37.101Z,21.20
2019-05-01T18:11:09.325Z,21.20
2019-05-01T18:13:35.048Z,21.10
2019-05-01T18:16:03.579Z,21.00
2019-05-01T18:18:31.981Z,20.70
2019-05-01T18:21:00.062Z,20.40
2019-05-01T18:23:47.541Z,20.10
2019-05-01T18:26:23.409Z,20.00
2019-05-01T18:28:55.907Z,19.70
2019-05-01T18:31:27.915Z,19.90
2019-05-01T18:33:57.116Z,20.00
2019-05-01T18:36:29.655Z,19.50
2019-05-01T18:39:16.314Z,19.10
2019-05-01T18:41:39.663Z,19.10
2019-05-01T18:44:10.047Z,18.90
2019-05-01T18:46:38.065Z,19.20
2019-05-01T18:49:06.484Z,19.20
2019-05-01T18:51:36.083Z,19.30
2019-05-01T18:54:04.459Z,18.90
2019-05-01T18:56:32.541Z,18.80
2019-05-01T18:59:00.561Z,18.50
2019-05-01T19:01:28.714Z,18.60
2019-05-01T19:03:57.064Z,18.20
2019-05-01T19:06:25.168Z,18.00
2019-05-01T19:08:53.249Z,17.90
2019-05-01T19:11:22.994Z,17.90
2019-05-01T19:13:51.163Z,18.20
2019-05-01T19:16:19.176Z,18.20
2019-05-01T19:18:47.268Z,17.90
2019-05-01T19:21:17.085Z,17.60
2019-05-01T19:23:45.244Z,17.30
2019-05-01T19:26:14.966Z,17.10
2019-05-01T19:28:46.624Z,17.30
2019-05-01T19:31:14.898Z,17.10
2019-05-01T19:33:42.978Z,16.70
2019-05-01T19:36:11.139Z,16.50
2019-05-01T19:38:39.287Z,16.30
2019-05-01T19:41:08.774Z,16.30
2019-05-01T19:43:40.442Z,16.30
2019-05-01T19:46:06.917Z,16.10
2019-05-01T19:48:34.981Z,16.00
2019-05-01T19:51:03.199Z,15.70
2019-05-01T19:53:31.492Z,15.80
2019-05-01T19:55:59.621Z,15.70
2019-05-01T19:58:27.768Z,15.80
2019-05-01T20:00:57.106Z,15.80
2019-05-01T20:03:25.306Z,15.90
2019-05-01T20:05:53.368Z,15.60
2019-05-01T20:08:21.494Z,15.30
2019-05-01T20:10:49.729Z,15.20
2019-05-01T20:13:18.098Z,15.10
2019-05-01T20:15:46.259Z,15.00
2019-05-01T20:18:14.295Z,15.00
2019-05-01T20:20:45.134Z,14.90
2019-05-01T20:23:13.611Z,14.80
2019-05-01T20:25:41.717Z,14.80
2019-05-01T20:28:09.793Z,14.70
2019-05-01T20:30:37.817Z,14.60
2019-05-01T20:33:08.255Z,14.80
2019-05-01T20:35:35.966Z,14.80
2019-05-01T20:38:04.153Z,14.80
2019-05-01T20:40:32.191Z,14.70
2019-05-01T20:43:00.992Z,14.70
2019-05-01T20:45:30.005Z,14.60
2019-05-01T20:47:58.056Z,14.60
2019-05-01T20:50:26.099Z,14.60
2019-05-01T20:52:54.233Z,14.60
2019-05-01T20:55:22.984Z,14.50
2019-05-01T20:57:51.314Z,14.40
2019-05-01T21:00:20.667Z,14.30
2019-05-01T21:02:48.698Z,14.20
2019-05-01T21:05:33.765Z,14.20
2019-05-01T21:08:15.707Z,14.10
2019-05-01T21:10:54.165Z,13.90
2019-05-01T21:13:23.101Z,13.80
2019-05-01T21:15:51.559Z,13.80
2019-05-01T21:18:20.840Z,13.70
2019-05-01T21:20:49.237Z,13.90
2019-05-01T21:23:17.321Z,13.80
2019-05-01T21:25:45.427Z,13.70
2019-05-01T21:28:14.206Z,13.70
2019-05-01T21:30:43.970Z,13.60
2019-05-01T21:33:13.836Z,13.50
2019-05-01T21:35:44.328Z,13.40
2019-05-01T21:38:11.838Z,13.20
2019-05-01T21:40:41.190Z,13.10
2019-05-01T21:43:09.513Z,13.10
2019-05-01T21:45:37.508Z,13.00
2019-05-01T21:48:05.492Z,12.90
2019-05-01T21:50:33.638Z,12.90
2019-05-01T21:53:03.159Z,12.90
2019-05-01T21:55:32.098Z,12.80
2019-05-01T21:58:00.217Z,12.70
2019-05-01T22:00:29.942Z,12.70
2019-05-01T22:02:57.940Z,12.70
2019-05-01T22:05:25.937Z,12.70
2019-05-01T22:07:53.924Z,12.60
2019-05-01T22:10:26.714Z,12.60
2019-05-01T22:12:51.762Z,12.60
2019-05-01T22:15:24.417Z,12.60
2019-05-01T22:18:09.113Z,12.50
2019-05-01T22:20:38.929Z,12.40
2019-05-01T22:23:11.347Z,12.30
2019-05-01T22:25:41.358Z,12.30
2019-05-01T22:28:13.952Z,12.20
2019-05-01T22:30:46.458Z,12.20
2019-05-01T22:33:14.744Z,12.20
2019-05-01T22:35:44.554Z,12.10
2019-05-01T22:38:12.545Z,12.20
2019-05-01T22:40:48.183Z,12.20
2019-05-01T22:43:16.167Z,12.20
2019-05-01T22:45:44.265Z,12.20
2019-05-01T22:48:12.521Z,12.20
2019-05-01T22:50:41.753Z,12.20
2019-05-01T22:53:13.058Z,12.20
2019-05-01T22:55:39.504Z,12.20
2019-05-01T22:58:07.557Z,12.10
